Time;durP1;ratioP1;P1;durP2;ratioP2;P2;SDS_P1;SDS_P2;PMS_P1;PMS_P2;Temp;Humidity;BMP_temperature;BMP_pressure;BME280_temperature;BME280_humidity;BME280_pressure;Samples;Min_cycle;Max_cycle;Signal;HPM_P1;HPM_P2
2022/03/29 00:00:25;;;;;;;;;;;;;;;6.94;99.57;101837.41;5049589;28;20041;-74
2022/03/29 00:02:50;;;;;;;;;;;;;;;6.82;99.71;101842.81;5067479;28;20380;-76
2022/03/29 00:05:16;;;;;;;;;;;;;;;6.91;99.09;101839.19;5084081;28;19973;-74
2022/03/29 00:07:41;;;;;;;;;;;;;;;6.90;98.83;101838.31;5072385;28;19923;-75
2022/03/29 00:10:07;;;;;;;;;;;;;;;6.80;99.34;101834.13;5071835;28;19938;-75
2022/03/29 00:12:34;;;;;;;;;;;;;;;6.87;99.58;101837.50;5068683;28;21525;-75
2022/03/29 00:14:59;;;;;;;;;;;;;;;6.81;99.28;101825.41;5071898;28;19970;-74
2022/03/29 00:17:25;;;;;;;;;;;;;;;6.87;99.29;101820.06;5087330;28;19916;-74
2022/03/29 00:19:50;;;;;;;;;;;;;;;6.86;98.91;101818.34;5073255;28;20025;-74
2022/03/29 00:22:16;;;;;;;;;;;;;;;6.84;99.29;101829.72;5070276;28;19928;-74
2022/03/29 00:24:41;;;;;;;;;;;;;;;6.84;99.51;101820.13;5069876;28;19917;-74
2022/03/29 00:27:07;;;;;;;;;;;;;;;6.78;100.00;101825.44;5070961;28;20354;-75
2022/03/29 00:29:32;;;;;;;;;;;;;;;6.78;100.00;101815.00;5070438;28;19920;-74
2022/03/29 00:31:57;;;;;;;;;;;;;;;6.75;100.00;101810.69;5070482;28;19921;-75
2022/03/29 00:34:23;;;;;;;;;;;;;;;6.74;100.00;101810.69;5066847;28;20382;-73
2022/03/29 00:36:48;;;;;;;;;;;;;;;6.74;100.00;101806.34;5064859;28;19970;-74
2022/03/29 00:39:13;;;;;;;;;;;;;;;6.76;100.00;101801.97;5070147;28;19916;-74
2022/03/29 00:41:39;;;;;;;;;;;;;;;6.84;100.00;101807.06;5071170;28;19963;-73
2022/03/29 00:44:06;;;;;;;;;;;;;;;6.80;100.00;101800.19;5069941;28;19916;-74
2022/03/29 00:46:31;;;;;;;;;;;;;;;6.75;100.00;101799.38;5065361;28;19920;-74
2022/03/29 00:48:57;;;;;;;;;;;;;;;6.81;100.00;101800.13;5068588;28;19924;-73
2022/03/29 00:51:23;;;;;;;;;;;;;;;6.77;99.84;101789.75;5067382;28;20043;-73
2022/03/29 00:53:48;;;;;;;;;;;;;;;6.63;100.00;101785.59;5068547;28;19921;-74
2022/03/29 00:56:13;;;;;;;;;;;;;;;6.62;100.00;101786.50;5069253;28;19917;-75
2022/03/29 00:58:39;;;;;;;;;;;;;;;6.70;100.00;101789.00;5070353;28;19917;-74
2022/03/29 01:01:05;;;;;;;;;;;;;;;6.79;100.00;101781.00;5061033;28;19923;-74
2022/03/29 01:03:30;;;;;;;;;;;;;;;6.71;100.00;101779.44;5070405;28;20386;-74
2022/03/29 01:05:55;;;;;;;;;;;;;;;6.60;100.00;101774.34;5083161;28;19954;-74
2022/03/29 01:08:21;;;;;;;;;;;;;;;6.68;100.00;101779.47;5070015;28;19917;-74
2022/03/29 01:10:47;;;;;;;;;;;;;;;6.57;100.00;101785.72;5069297;28;19955;-73
2022/03/29 01:13:12;;;;;;;;;;;;;;;6.48;100.00;101762.34;5070172;28;19928;-74
2022/03/29 01:15:38;;;;;;;;;;;;;;;6.42;100.00;101775.47;5068864;28;19916;-74
2022/03/29 01:18:05;;;;;;;;;;;;;;;6.31;100.00;101768.66;5069137;28;19952;-75
2022/03/29 01:20:31;;;;;;;;;;;;;;;6.38;100.00;101766.84;5068219;28;20010;-74
2022/03/29 01:22:57;;;;;;;;;;;;;;;6.44;100.00;101756.31;5071457;28;19927;-74
2022/03/29 01:25:25;;;;;;;;;;;;;;;6.33;100.00;101761.69;5069785;28;20308;-74
2022/03/29 01:27:51;;;;;;;;;;;;;;;6.36;100.00;101752.94;5068988;28;20007;-74
2022/03/29 01:30:17;;;;;;;;;;;;;;;6.39;100.00;101758.13;5069037;28;20050;-73
2022/03/29 01:32:44;;;;;;;;;;;;;;;6.46;100.00;101753.69;5070002;28;20003;-74
2022/03/29 01:35:09;;;;;;;;;;;;;;;6.33;100.00;101756.47;5059184;28;19924;-73
2022/03/29 01:37:35;;;;;;;;;;;;;;;6.32;100.00;101754.75;5049984;28;19916;-73
2022/03/29 01:40:04;;;;;;;;;;;;;;;6.27;100.00;101759.19;5050268;28;19920;-74
2022/03/29 01:42:29;;;;;;;;;;;;;;;6.32;100.00;101753.88;5050240;28;20397;-74
2022/03/29 01:44:55;;;;;;;;;;;;;;;6.48;100.00;101749.31;5050682;28;20023;-73
2022/03/29 01:47:21;;;;;;;;;;;;;;;6.37;100.00;101744.22;5049344;28;20390;-73
2022/03/29 01:49:46;;;;;;;;;;;;;;;6.20;100.00;101752.28;5051856;28;19979;-73
2022/03/29 01:52:12;;;;;;;;;;;;;;;6.31;100.00;101753.00;5049623;28;20298;-75
2022/03/29 01:54:37;;;;;;;;;;;;;;;6.24;100.00;101747.88;5061647;28;19917;-75
2022/03/29 01:57:02;;;;;;;;;;;;;;;6.11;100.00;101737.66;5101455;28;19925;-74
2022/03/29 02:00:30;;;;;;;;;;;;;;;6.11;100.00;101744.59;5069397;28;20484;-74
2022/03/29 02:02:13;;;;;;;;;;;;;;;6.10;100.00;101741.16;5067885;28;19917;-73
2022/03/29 02:04:38;;;;;;;;;;;;;;;6.07;100.00;101740.28;5069136;28;19986;-75
2022/03/29 02:07:03;;;;;;;;;;;;;;;6.02;100.00;101733.41;5069396;28;19924;-73
2022/03/29 02:09:29;;;;;;;;;;;;;;;6.15;100.00;101722.81;5069356;28;19955;-74
2022/03/29 02:11:54;;;;;;;;;;;;;;;6.18;100.00;101714.91;5069728;28;19925;-73
2022/03/29 02:14:19;;;;;;;;;;;;;;;6.06;100.00;101717.72;5068926;28;19964;-74
2022/03/29 02:16:45;;;;;;;;;;;;;;;6.17;100.00;101708.00;5074918;28;19924;-74
2022/03/29 02:19:11;;;;;;;;;;;;;;;6.12;100.00;101704.59;5068616;28;19969;-74
2022/03/29 02:21:36;;;;;;;;;;;;;;;6.10;100.00;101716.78;5101310;28;19947;-74
2022/03/29 02:24:02;;;;;;;;;;;;;;;6.16;100.00;101716.72;5069102;28;19999;-74
2022/03/29 02:26:27;;;;;;;;;;;;;;;6.17;100.00;101705.41;5066808;28;19916;-73
2022/03/29 02:28:52;;;;;;;;;;;;;;;6.12;100.00;101709.81;5069046;28;19923;-73
2022/03/29 02:31:17;;;;;;;;;;;;;;;6.07;100.00;101699.44;5067910;28;19959;-74
2022/03/29 02:33:43;;;;;;;;;;;;;;;6.11;100.00;101700.25;5068953;28;19946;-74
2022/03/29 02:36:09;;;;;;;;;;;;;;;5.95;100.00;101690.00;5068883;28;19993;-73
2022/03/29 02:38:35;;;;;;;;;;;;;;;6.10;99.81;101683.75;5068822;28;19916;-74
2022/03/29 02:41:00;;;;;;;;;;;;;;;5.99;100.00;101677.78;5069071;28;20258;-74
2022/03/29 02:43:25;;;;;;;;;;;;;;;5.99;99.79;101670.84;5069296;28;19927;-74
2022/03/29 02:45:51;;;;;;;;;;;;;;;6.03;99.98;101663.81;5070572;28;19928;-75
2022/03/29 02:48:16;;;;;;;;;;;;;;;6.05;99.35;101662.06;5068571;28;20384;-74
2022/03/29 02:50:42;;;;;;;;;;;;;;;6.10;97.96;101667.22;5067347;28;20419;-73
2022/03/29 02:53:08;;;;;;;;;;;;;;;6.10;97.62;101667.22;5067600;28;19924;-74
2022/03/29 02:55:34;;;;;;;;;;;;;;;6.13;97.50;101656.75;5068623;28;19923;-74
2022/03/29 02:57:59;;;;;;;;;;;;;;;6.05;98.08;101659.47;5069117;28;19916;-73
2022/03/29 03:00:25;;;;;;;;;;;;;;;6.01;97.94;101662.97;5073275;28;20011;-74
2022/03/29 03:02:51;;;;;;;;;;;;;;;5.91;97.44;101654.41;5069455;28;19920;-74
2022/03/29 03:05:17;;;;;;;;;;;;;;;5.83;97.79;101654.50;5068842;28;20042;-73
2022/03/29 03:07:43;;;;;;;;;;;;;;;5.91;97.83;101654.41;5067829;28;19920;-74
2022/03/29 03:10:09;;;;;;;;;;;;;;;5.96;96.82;101652.59;5068714;28;19920;-74
2022/03/29 03:12:35;;;;;;;;;;;;;;;5.91;97.75;101650.94;5068505;28;20378;-74
2022/03/29 03:15:00;;;;;;;;;;;;;;;5.97;98.40;101654.31;5070122;28;19920;-75
2022/03/29 03:17:26;;;;;;;;;;;;;;;5.98;97.19;101653.44;5083527;28;20057;-75
2022/03/29 03:19:51;;;;;;;;;;;;;;;5.98;97.52;101653.44;5084303;28;19927;-74
2022/03/29 03:22:16;;;;;;;;;;;;;;;6.07;97.30;101647.25;5066797;28;19947;-74
2022/03/29 03:24:41;;;;;;;;;;;;;;;6.03;96.70;101651.66;5067937;28;19923;-72
2022/03/29 03:27:07;;;;;;;;;;;;;;;5.98;96.93;101643.00;5067999;28;19917;-74
2022/03/29 03:29:32;;;;;;;;;;;;;;;6.01;97.11;101645.59;5067998;28;19923;-74
2022/03/29 03:31:58;;;;;;;;;;;;;;;6.03;97.38;101642.97;5068439;28;19951;-74
2022/03/29 03:34:24;;;;;;;;;;;;;;;5.90;97.90;101639.66;5062480;28;19960;-73
2022/03/29 03:36:49;;;;;;;;;;;;;;;5.94;97.30;101638.72;5080316;28;20555;-74
2022/03/29 03:39:14;;;;;;;;;;;;;;;5.92;97.20;101637.88;5048174;28;19917;-74
2022/03/29 03:41:40;;;;;;;;;;;;;;;5.88;96.65;101637.06;5079952;28;19990;-74
2022/03/29 03:44:05;;;;;;;;;;;;;;;5.88;96.56;101628.38;5047920;28;19921;-73
2022/03/29 03:46:30;;;;;;;;;;;;;;;5.94;96.48;101633.50;5065452;28;19970;-74
2022/03/29 03:48:56;;;;;;;;;;;;;;;5.93;96.79;101628.28;5066703;28;20454;-72
2022/03/29 03:51:21;;;;;;;;;;;;;;;5.90;96.61;101624.00;5065942;28;19928;-74
2022/03/29 03:53:46;;;;;;;;;;;;;;;6.01;96.22;101616.03;5065758;28;19927;-74
2022/03/29 03:56:11;;;;;;;;;;;;;;;5.98;96.57;101605.63;5066474;28;19970;-74
2022/03/29 03:58:37;;;;;;;;;;;;;;;5.93;97.30;101623.97;5066208;28;20242;-73
2022/03/29 04:01:02;;;;;;;;;;;;;;;5.92;97.39;101610.91;5066899;28;19970;-73
2022/03/29 04:03:27;;;;;;;;;;;;;;;5.90;97.02;101608.34;5066496;28;20496;-73
2022/03/29 04:05:52;;;;;;;;;;;;;;;5.86;97.58;101615.38;5067584;28;19924;-73
2022/03/29 04:08:18;;;;;;;;;;;;;;;5.92;97.81;101611.81;5067869;28;19916;-74
2022/03/29 04:10:44;;;;;;;;;;;;;;;5.92;97.04;101606.59;5067705;28;20250;-74
2022/03/29 04:13:09;;;;;;;;;;;;;;;5.78;96.91;101605.91;5065899;28;20539;-74
2022/03/29 04:15:34;;;;;;;;;;;;;;;5.96;96.38;101604.78;5068067;28;19920;-74
2022/03/29 04:18:01;;;;;;;;;;;;;;;5.96;96.03;101595.19;5069997;28;20301;-73
2022/03/29 04:20:27;;;;;;;;;;;;;;;5.87;96.74;101597.94;5064935;28;19939;-74
2022/03/29 04:22:52;;;;;;;;;;;;;;;5.85;97.09;101594.50;5056575;28;19917;-74
2022/03/29 04:25:17;;;;;;;;;;;;;;;5.95;96.44;101598.72;5051416;28;19917;-74
2022/03/29 04:27:42;;;;;;;;;;;;;;;5.96;96.07;101595.19;5059260;28;19928;-75
2022/03/29 04:30:09;;;;;;;;;;;;;;;5.95;96.78;101598.72;5071272;28;19923;-74
2022/03/29 04:32:36;;;;;;;;;;;;;;;5.98;96.58;101597.81;5069684;28;20438;-74
2022/03/29 04:35:01;;;;;;;;;;;;;;;5.98;96.45;101595.19;5063105;28;20403;-73
2022/03/29 04:37:26;;;;;;;;;;;;;;;5.88;97.61;101589.25;5051534;28;19952;-74
2022/03/29 04:39:51;;;;;;;;;;;;;;;5.92;96.88;101590.94;5051386;28;19917;-73
2022/03/29 04:42:18;;;;;;;;;;;;;;;5.84;96.84;101584.97;5051406;28;19927;-74
2022/03/29 04:44:44;;;;;;;;;;;;;;;5.75;96.78;101583.38;5055271;28;20925;-74
2022/03/29 04:47:09;;;;;;;;;;;;;;;5.77;97.53;101580.72;5070941;28;19916;-75
2022/03/29 04:49:34;;;;;;;;;;;;;;;5.64;97.25;101577.44;5071582;28;19921;-74
2022/03/29 04:52:00;;;;;;;;;;;;;;;5.55;98.33;101568.00;5070165;28;19963;-75
2022/03/29 04:54:25;;;;;;;;;;;;;;;5.58;98.53;101583.59;5068760;28;19960;-75
2022/03/29 04:56:50;;;;;;;;;;;;;;;5.52;98.26;101588.88;5070071;28;19921;-74
2022/03/29 04:59:15;;;;;;;;;;;;;;;5.53;98.01;101585.41;5071682;28;19924;-74
2022/03/29 05:01:41;;;;;;;;;;;;;;;5.63;98.50;101576.56;5070911;28;19917;-74
2022/03/29 05:04:08;;;;;;;;;;;;;;;5.68;97.71;101577.38;5070977;28;19966;-75
2022/03/29 05:06:34;;;;;;;;;;;;;;;5.64;97.82;101582.66;5070942;28;19951;-75
2022/03/29 05:08:59;;;;;;;;;;;;;;;5.77;96.70;101578.13;5069607;28;19959;-74
2022/03/29 05:11:24;;;;;;;;;;;;;;;5.65;97.25;101582.63;5085691;28;20019;-74
2022/03/29 05:13:49;;;;;;;;;;;;;;;5.66;97.63;101578.28;5050795;28;19925;-73
2022/03/29 05:16:15;;;;;;;;;;;;;;;5.78;97.46;101578.13;5050643;28;19971;-74
2022/03/29 05:18:42;;;;;;;;;;;;;;;5.63;97.81;101573.09;5065461;28;19920;-73
2022/03/29 05:21:08;;;;;;;;;;;;;;;5.61;98.00;101575.75;5051521;28;19928;-74
2022/03/29 05:23:33;;;;;;;;;;;;;;;5.72;98.19;101566.03;5067118;28;19920;-74
2022/03/29 05:25:58;;;;;;;;;;;;;;;5.70;97.97;101564.31;5066430;28;19917;-74
2022/03/29 05:28:24;;;;;;;;;;;;;;;5.67;97.95;101567.81;5053695;28;19917;-73
2022/03/29 05:30:49;;;;;;;;;;;;;;;5.64;97.61;101569.63;5049931;28;19974;-75
2022/03/29 05:33:16;;;;;;;;;;;;;;;5.71;96.96;101572.13;5049739;28;20027;-75
2022/03/29 05:35:43;;;;;;;;;;;;;;;5.78;96.57;101561.59;5035114;28;19928;-74
2022/03/29 05:38:08;;;;;;;;;;;;;;;5.84;96.86;101551.94;5030373;28;19997;-74
2022/03/29 05:40:34;;;;;;;;;;;;;;;5.75;97.02;101564.22;5030169;28;20007;-73
2022/03/29 05:42:59;;;;;;;;;;;;;;;5.69;98.23;101565.19;5030554;28;19970;-74
2022/03/29 05:45:25;;;;;;;;;;;;;;;5.76;97.90;101563.34;5052965;28;20691;-74
2022/03/29 05:50:31;;;;;;;;;;;;;;;5.75;97.79;101565.13;5069083;28;19920;-75
2022/03/29 05:52:57;;;;;;;;;;;;;;;5.78;98.26;101569.41;5071193;28;19931;-76
2022/03/29 05:55:23;;;;;;;;;;;;;;;5.77;98.57;101567.69;5102671;28;19923;-74
2022/03/29 05:57:49;;;;;;;;;;;;;;;5.81;98.07;101561.56;5101769;28;19923;-74
2022/03/29 06:00:16;;;;;;;;;;;;;;;5.95;98.06;101561.31;5069580;28;20007;-73
2022/03/29 06:02:41;;;;;;;;;;;;;;;6.00;97.26;101563.00;5070191;28;19920;-74
2022/03/29 06:05:07;;;;;;;;;;;;;;;5.92;98.41;101570.06;5069705;28;19927;-74
2022/03/29 06:07:32;;;;;;;;;;;;;;;5.79;98.84;101585.03;5070305;28;20320;-75
2022/03/29 06:09:58;;;;;;;;;;;;;;;5.69;99.64;101576.50;5071544;28;20358;-74
2022/03/29 06:12:24;;;;;;;;;;;;;;;5.83;100.00;101585.88;5069030;28;19928;-75
2022/03/29 06:14:49;;;;;;;;;;;;;;;5.87;98.89;101577.09;5085914;28;19916;-74
2022/03/29 06:17:15;;;;;;;;;;;;;;;5.82;99.02;101571.94;5089470;28;19920;-74
2022/03/29 06:19:41;;;;;;;;;;;;;;;5.76;99.58;101573.78;5087753;28;19919;-75
2022/03/29 06:22:06;;;;;;;;;;;;;;;5.85;99.25;101566.69;5082363;28;19962;-74
2022/03/29 06:24:32;;;;;;;;;;;;;;;5.72;99.84;101563.41;5066946;28;20399;-74
2022/03/29 06:26:57;;;;;;;;;;;;;;;5.78;100.00;101561.59;5069081;28;19958;-75
2022/03/29 06:29:22;;;;;;;;;;;;;;;5.75;99.91;101567.72;5068499;28;19923;-74
2022/03/29 06:31:48;;;;;;;;;;;;;;;5.91;98.97;101563.13;5067536;28;19932;-75
2022/03/29 06:34:13;;;;;;;;;;;;;;;5.81;99.12;101561.56;5065478;28;19917;-75
2022/03/29 06:36:39;;;;;;;;;;;;;;;5.84;99.23;101551.09;5048881;28;19970;-74
2022/03/29 06:39:05;;;;;;;;;;;;;;;5.91;98.12;101557.91;5049358;28;20003;-74
2022/03/29 06:41:30;;;;;;;;;;;;;;;5.92;98.59;101558.75;5048306;28;19925;-74
2022/03/29 06:43:56;;;;;;;;;;;;;;;6.09;97.11;101561.13;5049741;28;19924;-75
2022/03/29 06:46:21;;;;;;;;;;;;;;;6.12;96.98;101561.94;5064651;28;19924;-74
2022/03/29 06:48:47;;;;;;;;;;;;;;;5.86;97.80;101565.81;5068649;28;19989;-74
2022/03/29 06:51:13;;;;;;;;;;;;;;;5.92;97.93;101559.63;5068719;28;20333;-74
2022/03/29 06:53:39;;;;;;;;;;;;;;;5.95;97.41;101567.44;5069216;28;19917;-74
2022/03/29 06:56:05;;;;;;;;;;;;;;;5.97;97.60;101573.44;5069641;28;20289;-75
2022/03/29 06:58:30;;;;;;;;;;;;;;;5.99;96.68;101570.84;5069500;28;19916;-73
2022/03/29 07:00:56;;;;;;;;;;;;;;;5.85;97.53;101573.63;5069118;28;19924;-75
2022/03/29 07:03:22;;;;;;;;;;;;;;;5.97;96.82;101557.81;5068426;28;19916;-74
2022/03/29 07:05:48;;;;;;;;;;;;;;;5.97;96.45;101557.81;5066778;28;19923;-74
2022/03/29 07:08:16;;;;;;;;;;;;;;;6.14;95.96;101549.72;5068561;28;20015;-75
2022/03/29 07:13:23;;;;;;;;;;;;;;;6.01;95.44;101554.31;5068232;28;19938;-74
2022/03/29 07:15:50;;;;;;;;;;;;;;;6.07;95.29;101549.84;5068376;28;20011;-73
2022/03/29 07:18:15;;;;;;;;;;;;;;;5.96;96.27;101550.00;5064671;28;19928;-73
2022/03/29 07:20:40;;;;;;;;;;;;;;;5.85;96.10;101556.25;5063705;28;19920;-74
2022/03/29 07:23:06;;;;;;;;;;;;;;;5.67;96.28;101560.00;5067543;28;20211;-74
2022/03/29 07:25:32;;;;;;;;;;;;;;;5.80;96.38;101557.22;5069186;28;19931;-74
2022/03/29 07:27:57;;;;;;;;;;;;;;;5.92;96.17;101554.41;5067361;28;19922;-76
2022/03/29 07:30:23;;;;;;;;;;;;;;;5.90;96.09;101556.19;5068389;28;19920;-75
2022/03/29 07:32:50;;;;;;;;;;;;;;;5.93;95.80;101553.53;5063414;28;19931;-74
2022/03/29 07:35:17;;;;;;;;;;;;;;;6.01;95.80;101546.47;5066580;28;20028;-76
2022/03/29 07:37:43;;;;;;;;;;;;;;;6.16;94.57;101539.28;5063831;28;19920;-76
2022/03/29 07:40:09;;;;;;;;;;;;;;;6.21;94.82;101542.66;5057988;28;19970;-77
2022/03/29 07:42:35;;;;;;;;;;;;;;;6.29;95.02;101542.53;5060897;28;19974;-76
2022/03/29 07:45:03;;;;;;;;;;;;;;;6.38;93.28;101534.53;5061418;28;19925;-77
2022/03/29 07:47:29;;;;;;;;;;;;;;;6.37;93.20;101538.03;5058084;28;19927;-77
2022/03/29 07:49:55;;;;;;;;;;;;;;;6.47;92.31;101538.75;5083288;28;19917;-77
2022/03/29 07:52:20;;;;;;;;;;;;;;;6.09;91.51;101535.91;5056708;28;19932;-78
2022/03/29 07:54:46;;;;;;;;;;;;;;;6.15;92.23;101538.41;5064198;28;19918;-77
2022/03/29 07:57:11;;;;;;;;;;;;;;;6.63;90.94;101532.31;5067919;28;20363;-77
2022/03/29 07:59:37;;;;;;;;;;;;;;;6.97;88.94;101518.59;5062061;28;19924;-76
2022/03/29 08:02:03;;;;;;;;;;;;;;;7.08;86.79;101504.44;5066230;28;19924;-75
2022/03/29 08:04:28;;;;;;;;;;;;;;;7.14;87.96;101512.16;5062218;28;20320;-76
2022/03/29 08:06:54;;;;;;;;;;;;;;;6.69;88.43;101517.44;5066164;28;19928;-77
2022/03/29 08:09:19;;;;;;;;;;;;;;;6.71;89.02;101513.91;5069562;28;20289;-77
2022/03/29 08:11:44;;;;;;;;;;;;;;;6.89;87.26;101510.06;5066551;28;19925;-75
2022/03/29 08:14:12;;;;;;;;;;;;;;;6.77;88.15;101513.81;5067707;28;19928;-76
2022/03/29 08:16:37;;;;;;;;;;;;;;;6.90;87.68;101518.75;5066462;28;19924;-75
2022/03/29 08:19:03;;;;;;;;;;;;;;;6.72;87.70;101513.03;5059330;28;20426;-76
2022/03/29 08:24:09;;;;;;;;;;;;;;;7.05;87.51;101508.00;5064117;28;19923;-76
2022/03/29 08:26:34;;;;;;;;;;;;;;;7.70;83.33;101487.38;5062238;28;19916;-77
2022/03/29 08:29:00;;;;;;;;;;;;;;;7.69;83.11;101486.50;5050473;28;20404;-76
2022/03/29 08:31:25;;;;;;;;;;;;;;;8.16;81.80;101473.09;5064963;28;20289;-77
2022/03/29 08:33:51;;;;;;;;;;;;;;;8.62;80.43;101463.19;5056199;28;19931;-76
2022/03/29 08:36:16;;;;;;;;;;;;;;;9.10;79.81;101459.13;5057958;28;19917;-77
2022/03/29 08:38:42;;;;;;;;;;;;;;;9.43;77.29;101445.00;5062486;28;19924;-76
2022/03/29 08:41:08;;;;;;;;;;;;;;;9.62;75.07;101442.63;5069118;28;20541;-75
2022/03/29 08:43:33;;;;;;;;;;;;;;;9.12;75.50;101444.22;5070536;28;19917;-76
2022/03/29 08:45:59;;;;;;;;;;;;;;;8.96;76.82;101449.09;5068399;28;19916;-76
2022/03/29 08:48:25;;;;;;;;;;;;;;;8.62;78.61;101457.06;5066248;28;19921;-76
2022/03/29 08:50:51;;;;;;;;;;;;;;;8.83;77.88;101452.97;5066941;28;20392;-75
2022/03/29 08:53:17;;;;;;;;;;;;;;;8.55;77.91;101459.00;5066905;28;20007;-77
2022/03/29 08:55:44;;;;;;;;;;;;;;;8.05;81.13;101483.00;5070377;28;20016;-76
2022/03/29 08:58:09;;;;;;;;;;;;;;;8.67;79.21;101465.66;5065482;28;19920;-77
2022/03/29 09:00:35;;;;;;;;;;;;;;;8.31;78.85;101469.25;5058621;28;19994;-76
2022/03/29 09:03:00;;;;;;;;;;;;;;;8.69;78.21;101474.34;5059979;28;20569;-77
2022/03/29 09:05:28;;;;;;;;;;;;;;;9.37;74.89;101448.69;5058970;28;19952;-76
2022/03/29 09:07:54;;;;;;;;;;;;;;;9.35;74.71;101452.25;5064082;28;19916;-77
2022/03/29 09:10:20;;;;;;;;;;;;;;;9.07;76.98;101455.75;5052117;28;19917;-77
2022/03/29 09:12:46;;;;;;;;;;;;;;;8.89;76.66;101452.78;5059141;28;20428;-75
2022/03/29 09:15:12;;;;;;;;;;;;;;;9.03;76.14;101444.50;5053666;28;19928;-75
2022/03/29 09:17:42;;;;;;;;;;;;;;;9.99;74.07;101430.91;5064795;28;20440;-75
2022/03/29 09:20:10;;;;;;;;;;;;;;;10.16;71.98;101424.19;5056046;28;19920;-76
2022/03/29 09:22:44;;;;;;;;;;;;;;;10.05;71.99;101419.34;5073250;28;19929;-76
2022/03/29 09:25:11;;;;;;;;;;;;;;;10.69;68.96;101409.19;5067365;28;19924;-77
2022/03/29 09:27:51;;;;;;;;;;;;;;;10.49;70.36;101423.91;5066355;28;19925;-79
2022/03/29 09:30:17;;;;;;;;;;;;;;;10.93;69.54;101416.09;5077417;28;19916;-77
2022/03/29 09:32:51;;;;;;;;;;;;;;;10.51;69.08;101408.94;5071701;28;19931;-77
2022/03/29 09:35:17;;;;;;;;;;;;;;;9.98;69.79;101416.06;5044176;28;19928;-78
2022/03/29 09:37:44;;;;;;;;;;;;;;;9.53;72.21;101429.84;5056606;28;20015;-77
2022/03/29 09:40:10;;;;;;;;;;;;;;;9.30;74.09;101435.84;5056070;28;19971;-76
2022/03/29 09:42:35;;;;;;;;;;;;;;;9.83;71.39;101414.84;5068010;28;19925;-76
2022/03/29 09:45:00;;;;;;;;;;;;;;;9.31;73.04;101422.66;5032515;28;19928;-77
2022/03/29 09:47:27;;;;;;;;;;;;;;;9.08;74.70;101426.88;5049261;28;19917;-75
2022/03/29 09:50:02;;;;;;;;;;;;;;;8.94;76.40;101437.78;5049072;28;19962;-76
2022/03/29 09:52:29;;;;;;;;;;;;;;;9.33;75.05;101430.47;5052789;28;19989;-78
2022/03/29 09:55:10;;;;;;;;;;;;;;;9.54;73.83;101428.94;5066183;28;20405;-74
2022/03/29 09:57:36;;;;;;;;;;;;;;;10.23;72.01;101415.19;5062364;28;20374;-74
2022/03/29 10:00:03;;;;;;;;;;;;;;;10.10;71.59;101406.88;5062437;28;19942;-74
2022/03/29 10:02:36;;;;;;;;;;;;;;;9.81;72.21;101411.41;5064325;28;20033;-74
2022/03/29 10:05:03;;;;;;;;;;;;;;;9.66;72.45;101409.28;5066002;28;20004;-75
2022/03/29 10:07:31;;;;;;;;;;;;;;;9.47;74.74;101424.81;5064398;28;19920;-76
2022/03/29 10:09:56;;;;;;;;;;;;;;;9.93;72.62;101404.00;5068597;28;19966;-76
2022/03/29 10:12:23;;;;;;;;;;;;;;;11.51;67.01;101369.94;5065548;28;20029;-76
2022/03/29 10:14:50;;;;;;;;;;;;;;;12.97;61.34;101339.69;5073020;28;19990;-76
2022/03/29 10:17:16;;;;;;;;;;;;;;;12.35;63.13;101358.41;5069159;28;19959;-74
2022/03/29 10:19:44;;;;;;;;;;;;;;;11.78;61.94;101356.53;5069890;28;19936;-74
2022/03/29 10:22:11;;;;;;;;;;;;;;;13.21;60.01;101353.47;5067426;28;19920;-78
2022/03/29 10:24:38;;;;;;;;;;;;;;;13.17;59.58;101351.03;5068034;28;19920;-76
2022/03/29 10:27:03;;;;;;;;;;;;;;;13.81;57.06;101333.75;5069885;28;20246;-74
2022/03/29 10:29:29;;;;;;;;;;;;;;;14.01;56.43;101330.03;5062076;28;19924;-75
2022/03/29 10:31:56;;;;;;;;;;;;;;;12.49;60.47;101355.16;5071711;28;19924;-76
2022/03/29 10:34:23;;;;;;;;;;;;;;;12.34;62.43;101360.19;5101899;27;20476;-75
2022/03/29 10:37:04;;;;;;;;;;;;;;;12.34;60.85;101351.47;5070972;28;19927;-76
2022/03/29 10:39:49;;;;;;;;;;;;;;;11.67;65.26;101377.19;5058444;28;19927;-75
2022/03/29 10:42:29;;;;;;;;;;;;;;;11.16;66.04;101374.03;5066455;28;19928;-75
2022/03/29 10:45:10;;;;;;;;;;;;;;;10.91;66.36;101388.16;5067679;28;19920;-75
2022/03/29 10:47:36;;;;;;;;;;;;;;;10.40;68.24;101390.09;5062815;28;19925;-74
2022/03/29 10:50:03;;;;;;;;;;;;;;;10.38;69.50;101389.28;5065968;28;20007;-74
2022/03/29 10:52:29;;;;;;;;;;;;;;;10.93;68.06;101381.91;5068219;28;19959;-75
2022/03/29 10:55:13;;;;;;;;;;;;;;;11.12;66.54;101375.94;5068373;28;19921;-76
2022/03/29 10:57:38;;;;;;;;;;;;;;;10.57;68.10;101381.59;5059087;28;19981;-73
2022/03/29 11:00:06;;;;;;;;;;;;;;;10.65;66.93;101379.50;5066247;28;20019;-75
2022/03/29 11:02:32;;;;;;;;;;;;;;;11.39;65.57;101370.44;5063508;28;20408;-75
2022/03/29 11:05:00;;;;;;;;;;;;;;;11.72;64.39;101351.50;5064931;28;19928;-74
2022/03/29 11:07:26;;;;;;;;;;;;;;;11.31;66.45;101370.75;5045168;28;19928;-75
2022/03/29 11:10:06;;;;;;;;;;;;;;;11.43;65.10;101358.88;5046407;28;19924;-75
2022/03/29 11:12:39;;;;;;;;;;;;;;;11.13;65.60;101362.72;5046159;28;19924;-76
2022/03/29 11:15:20;;;;;;;;;;;;;;;11.37;65.02;101359.13;5048887;28;19964;-75
2022/03/29 11:17:45;;;;;;;;;;;;;;;11.06;66.49;101363.91;5047971;28;19935;-75
2022/03/29 11:20:27;;;;;;;;;;;;;;;10.51;68.68;101369.53;5057994;28;19924;-73
2022/03/29 11:22:52;;;;;;;;;;;;;;;10.57;69.08;101371.94;5061141;28;19932;-76
2022/03/29 11:25:20;;;;;;;;;;;;;;;11.09;67.28;101358.50;5047160;28;19969;-74
2022/03/29 11:27:46;;;;;;;;;;;;;;;11.66;65.71;101352.63;5051720;28;20012;-75
2022/03/29 11:30:11;;;;;;;;;;;;;;;11.28;67.06;101360.38;5064696;28;20416;-75
2022/03/29 11:32:41;;;;;;;;;;;;;;;11.21;67.18;101358.91;5066466;28;19974;-73
2022/03/29 11:35:07;;;;;;;;;;;;;;;10.66;69.59;101368.09;5070351;28;20480;-75
2022/03/29 11:37:36;;;;;;;;;;;;;;;10.85;67.92;101352.47;5073173;28;20015;-75
2022/03/29 11:40:03;;;;;;;;;;;;;;;10.90;67.52;101355.78;5086775;28;20566;-75
2022/03/29 11:42:41;;;;;;;;;;;;;;;10.84;68.52;101350.75;5075930;28;19928;-74
2022/03/29 11:45:06;;;;;;;;;;;;;;;10.77;69.34;101354.53;5063656;28;19973;-75
2022/03/29 11:47:32;;;;;;;;;;;;;;;10.35;70.22;101354.34;5070946;28;20551;-75
2022/03/29 11:49:57;;;;;;;;;;;;;;;10.54;70.14;101348.41;5068396;28;20359;-76
2022/03/29 11:52:31;;;;;;;;;;;;;;;10.14;70.51;101342.00;5068233;28;20053;-73
2022/03/29 11:54:56;;;;;;;;;;;;;;;10.04;71.13;101337.06;5058317;28;20384;-73
2022/03/29 11:57:23;;;;;;;;;;;;;;;10.26;71.55;101346.78;5067701;28;19936;-76
2022/03/29 11:59:49;;;;;;;;;;;;;;;10.35;68.71;101330.69;5070289;28;19921;-74
2022/03/29 12:02:14;;;;;;;;;;;;;;;10.34;69.07;101321.09;5061655;28;19927;-75
2022/03/29 12:04:40;;;;;;;;;;;;;;;10.16;69.53;101316.53;5074604;28;20357;-74
2022/03/29 12:07:05;;;;;;;;;;;;;;;10.66;69.42;101305.91;5069177;28;20007;-75
2022/03/29 12:09:31;;;;;;;;;;;;;;;10.57;69.41;101306.25;5069595;28;19946;-79
2022/03/29 12:11:59;;;;;;;;;;;;;;;10.41;68.04;101292.00;5067322;28;19974;-77
2022/03/29 12:14:25;;;;;;;;;;;;;;;10.42;69.47;101291.94;5062175;28;19921;-77
2022/03/29 12:16:51;;;;;;;;;;;;;;;10.48;66.95;101280.31;5061735;28;19978;-79
2022/03/29 12:19:18;;;;;;;;;;;;;;;10.58;66.78;101275.56;5063623;28;20029;-74
2022/03/29 12:21:45;;;;;;;;;;;;;;;10.53;66.27;101262.63;5064899;28;19924;-75
2022/03/29 12:24:11;;;;;;;;;;;;;;;10.48;66.08;101260.19;5071513;28;19920;-74
2022/03/29 12:26:44;;;;;;;;;;;;;;;10.58;67.48;101260.69;5069164;28;19928;-75
2022/03/29 12:29:12;;;;;;;;;;;;;;;10.05;66.71;101254.78;5049103;28;19932;-74
2022/03/29 12:31:38;;;;;;;;;;;;;;;9.90;69.19;101271.13;5046766;28;20001;-75
2022/03/29 12:34:03;;;;;;;;;;;;;;;10.21;68.90;101259.47;5054817;28;19929;-75
2022/03/29 12:36:29;;;;;;;;;;;;;;;10.30;67.41;101256.47;5082351;28;19921;-76
2022/03/29 12:38:58;;;;;;;;;;;;;;;10.56;66.86;101261.63;5064539;28;19920;-74
2022/03/29 12:41:41;;;;;;;;;;;;;;;10.61;67.36;101249.19;5062221;28;19929;-75
2022/03/29 12:44:09;;;;;;;;;;;;;;;10.66;66.35;101242.81;5063801;28;19925;-74
2022/03/29 12:46:35;;;;;;;;;;;;;;;10.41;66.33;101232.47;5069683;28;19924;-75